createdAt,value
2019-02-19T00:00:02.596Z,277.27
2019-02-19T00:02:31.414Z,265.68
2019-02-19T00:05:00.288Z,292.35
2019-02-19T00:07:28.787Z,269.25
2019-02-19T00:09:58.466Z,258.35
2019-02-19T00:12:26.842Z,250.30
2019-02-19T00:14:55.459Z,209.65
2019-02-19T00:17:24.034Z,204.05
2019-02-19T00:19:52.451Z,213.57
2019-02-19T00:24:48.775Z,218.37
2019-02-19T00:27:17.219Z,216.12
2019-02-19T00:29:45.635Z,229.32
2019-02-19T00:34:42.039Z,240.85
2019-02-19T00:37:10.477Z,233.40
2019-02-19T00:42:06.715Z,236.35
2019-02-19T00:44:35.433Z,239.93
2019-02-19T00:47:03.857Z,244.10
2019-02-19T00:52:00.541Z,210.70
2019-02-19T00:54:28.999Z,232.45
2019-02-19T00:56:57.425Z,220.63
2019-02-19T00:59:25.932Z,207.32
2019-02-19T01:01:54.593Z,229.60
2019-02-19T01:04:23.075Z,203.02
2019-02-19T01:06:51.594Z,219.05
2019-02-19T01:09:20.071Z,241.82
2019-02-19T01:11:48.672Z,233.53
2019-02-19T01:14:17.136Z,220.73
2019-02-19T01:16:45.573Z,230.18
2019-02-19T01:19:14.249Z,194.37
2019-02-19T01:21:42.834Z,188.75
2019-02-19T01:24:11.456Z,229.40
2019-02-19T01:26:40.101Z,224.92
2019-02-19T01:29:08.533Z,229.13
2019-02-19T01:31:37.151Z,218.48
2019-02-19T01:34:05.693Z,221.93
2019-02-19T01:36:34.173Z,229.05
2019-02-19T01:39:02.755Z,221.22
2019-02-19T01:41:31.695Z,208.60
2019-02-19T01:44:00.477Z,190.65
2019-02-19T01:46:29.188Z,214.10
2019-02-19T01:48:57.741Z,235.55
2019-02-19T01:51:26.257Z,208.23
2019-02-19T01:53:54.865Z,238.57
2019-02-19T01:56:23.530Z,217.95
2019-02-19T01:58:51.981Z,210.75
2019-02-19T02:01:20.435Z,223.22
2019-02-19T02:03:48.978Z,213.22
2019-02-19T02:06:17.481Z,204.55
2019-02-19T02:08:46.046Z,208.28
2019-02-19T02:11:14.546Z,204.45
2019-02-19T02:13:42.970Z,205.45
2019-02-19T02:16:11.419Z,199.50
2019-02-19T02:18:40.091Z,220.70
2019-02-19T02:21:08.603Z,218.07
2019-02-19T02:23:37.205Z,223.82
2019-02-19T02:26:05.622Z,219.60
2019-02-19T02:28:34.162Z,211.97
2019-02-19T02:31:02.809Z,216.15
2019-02-19T02:33:31.378Z,225.57
2019-02-19T02:35:59.887Z,198.53
2019-02-19T02:38:28.641Z,206.63
2019-02-19T02:40:57.587Z,182.85
2019-02-19T02:43:26.239Z,201.73
2019-02-19T02:45:54.705Z,198.80
2019-02-19T02:48:23.213Z,212.10
2019-02-19T02:50:51.693Z,214.42
2019-02-19T02:53:20.277Z,186.30
2019-02-19T02:55:49.033Z,173.07
2019-02-19T02:58:17.549Z,203.73
2019-02-19T03:00:46.135Z,170.72
2019-02-19T03:03:14.626Z,210.75
2019-02-19T03:05:59.034Z,211.60
2019-02-19T03:08:27.659Z,211.82
2019-02-19T03:10:56.220Z,205.20
2019-02-19T03:13:24.889Z,207.62
2019-02-19T03:16:02.186Z,188.22
2019-02-19T03:18:23.641Z,203.90
2019-02-19T03:20:52.255Z,206.60
2019-02-19T03:23:20.801Z,208.93
2019-02-19T03:25:49.295Z,202.20
2019-02-19T03:28:17.753Z,207.15
2019-02-19T03:30:46.207Z,180.48
2019-02-19T03:33:14.769Z,210.45
2019-02-19T03:35:43.370Z,234.70
2019-02-19T03:38:11.882Z,205.95
2019-02-19T03:40:40.537Z,204.25
2019-02-19T03:43:09.071Z,191.82
2019-02-19T03:45:37.502Z,210.88
2019-02-19T03:48:05.992Z,180.80
2019-02-19T03:50:34.539Z,210.35
2019-02-19T03:53:03.077Z,176.72
2019-02-19T03:55:31.562Z,186.18
2019-02-19T03:58:00.119Z,184.37
2019-02-19T04:00:28.591Z,184.85
2019-02-19T04:02:57.405Z,185.88
2019-02-19T04:05:25.902Z,170.53
2019-02-19T04:07:54.658Z,167.43
2019-02-19T04:10:23.411Z,172.37
2019-02-19T04:12:51.983Z,196.65
2019-02-19T04:15:20.603Z,193.97
2019-02-19T04:17:49.232Z,181.85
2019-02-19T04:20:17.790Z,175.27
2019-02-19T04:22:46.200Z,171.53
2019-02-19T04:25:14.691Z,174.27
2019-02-19T04:27:43.259Z,179.63
2019-02-19T04:30:11.816Z,174.80
2019-02-19T04:32:40.251Z,179.42
2019-02-19T04:35:08.980Z,193.10
2019-02-19T04:37:37.829Z,187.27
2019-02-19T04:40:08.000Z,204.47
2019-02-19T04:42:36.695Z,204.72
2019-02-19T04:45:05.541Z,197.40
2019-02-19T04:47:34.059Z,192.55
2019-02-19T04:50:03.241Z,179.38
2019-02-19T04:52:31.949Z,198.45
2019-02-19T04:55:00.362Z,208.97
2019-02-19T04:57:28.840Z,222.58
2019-02-19T04:59:57.362Z,211.68
2019-02-19T05:02:25.935Z,239.53
2019-02-19T05:04:54.606Z,217.20
2019-02-19T05:07:23.091Z,222.63
2019-02-19T05:09:51.705Z,219.75
2019-02-19T05:12:20.271Z,226.98
2019-02-19T05:14:49.040Z,213.65
2019-02-19T05:17:17.440Z,195.12
